< Typhoon 198527 1986 Season Typhoon 198602 >
Typhoon 198601 (JUDY)
General InformationTrack Information on Google MapsDetailed Wind InformationList of All Images || Disaster Info.ResourceGoogle EarthGE AnimationAtom FeedGeoJSON
Detalied Best Track (Time Zone = UTC)
Year Month Day Hour Lat. Long. Pressure (hPa) Wind (kt) Class Image Chart
1986 1 29 00 3.5 151.5 1002 0 2 Image Chart
1986 1 29 06 3.5 151.0 1002 0 2 Image Chart
1986 1 29 12 3.5 150.6 1002 0 2 Image Chart
1986 1 29 18 3.5 150.2 1002 0 2 Image Chart
1986 1 30 00 3.5 150.0 1000 0 2 Image Chart
1986 1 30 06 3.5 149.8 1000 0 2 Image Chart
1986 1 30 12 3.5 149.6 1000 0 2 Image Chart
1986 1 30 18 3.5 149.4 1000 0 2 Image Chart
1986 1 31 00 3.6 149.0 1000 0 2 Image Chart
1986 1 31 06 3.8 148.0 1000 0 2 Image Chart
1986 1 31 12 4.0 146.5 1000 0 2 Image Chart
1986 1 31 18 4.0 145.0 1000 0 2 Image Chart
1986 2 1 00 4.3 143.5 998 0 2 Image Chart
1986 2 1 06 4.6 142.0 998 0 2 Image Chart
1986 2 1 12 5.0 140.5 996 40 3 Image Chart
1986 2 1 18 5.5 139.0 996 40 3 Image Chart
1986 2 2 00 6.2 137.4 996 40 3 Image Chart
1986 2 2 06 7.8 136.3 994 40 3 Image Chart
1986 2 2 12 8.8 135.0 992 40 3 Image Chart
1986 2 2 18 9.6 133.7 990 45 3 Image Chart
1986 2 3 00 10.5 132.5 985 55 4 Image Chart
1986 2 3 06 11.4 131.7 985 55 4 Image Chart
1986 2 3 12 12.5 131.1 980 55 4 Image Chart
1986 2 3 18 13.7 131.2 980 55 4 Image Chart
1986 2 4 00 15.0 131.6 975 65 5 Image Chart
1986 2 4 06 16.0 132.3 975 70 5 Image Chart
1986 2 4 12 17.1 133.5 970 70 5 Image Chart
1986 2 4 18 17.9 134.9 970 70 5 Image Chart
1986 2 5 00 18.7 136.4 980 55 4 Image Chart
1986 2 5 06 18.7 138.0 998 45 3 Image Chart
1986 2 5 12 18.6 139.2 1002 0 2 Image Chart
1986 2 5 18 18.7 140.6 1004 0 2 Image Chart
1986 2 6 00 19.0 142.0 1008 0 2 Image Chart
Japan Meteorological Agency Best Track Data | Correction Date : 1992-10-21
< Typhoon 198527 1986 Season Typhoon 198602 >

Help